Terminal Aerodrome Forecast
Issued by NWS

Home | Current Version | Previous Version | Text Only | Print | Product List | Glossary On
Versions: 1 2 3 4 5 6 7 8 9 10 11 12 13
000
FTUS41 KBTV 011120
TAFMSS
TAF
KMSS 011120Z 0112/0212 06004KT P6SM -SHRA SCT020 OVC035
      TEMPO 0112/0115 3SM SHRA BR OVC028
     FM011500 21005KT P6SM VCSH SCT015 OVC028
     FM011800 23012G20KT P6SM OVC035
     FM020300 25008KT P6SM SCT045 BKN100=

USA.gov is the U.S. government's official web portal to all federal, state and local government web resources and services.